sensor_id;sensor_type;location;lat;lon;timestamp;temperature;humidity
4249;DHT22;8404;48.752;12.922;2022-07-29T00:01:14;20.50;67.60
4249;DHT22;8404;48.752;12.922;2022-07-29T00:03:45;20.50;67.70
4249;DHT22;8404;48.752;12.922;2022-07-29T00:06:13;20.40;68.10
4249;DHT22;8404;48.752;12.922;2022-07-29T00:08:42;20.40;68.60
4249;DHT22;8404;48.752;12.922;2022-07-29T00:11:10;20.40;68.70
4249;DHT22;8404;48.752;12.922;2022-07-29T00:13:39;20.40;68.90
4249;DHT22;8404;48.752;12.922;2022-07-29T00:16:07;20.40;68.80
4249;DHT22;8404;48.752;12.922;2022-07-29T00:18:36;20.40;69.40
4249;DHT22;8404;48.752;12.922;2022-07-29T00:21:04;20.30;69.60
4249;DHT22;8404;48.752;12.922;2022-07-29T00:23:32;20.30;69.20
4249;DHT22;8404;48.752;12.922;2022-07-29T00:26:02;20.30;69.60
4249;DHT22;8404;48.752;12.922;2022-07-29T00:28:31;20.30;69.50
4249;DHT22;8404;48.752;12.922;2022-07-29T00:31:00;20.30;69.80
4249;DHT22;8404;48.752;12.922;2022-07-29T00:33:28;20.30;71.10
4249;DHT22;8404;48.752;12.922;2022-07-29T00:35:56;20.20;71.10
4249;DHT22;8404;48.752;12.922;2022-07-29T00:38:24;20.20;70.80
4249;DHT22;8404;48.752;12.922;2022-07-29T00:40:52;20.20;70.50
4249;DHT22;8404;48.752;12.922;2022-07-29T00:43:20;20.20;71.00
4249;DHT22;8404;48.752;12.922;2022-07-29T00:45:48;20.20;70.70
4249;DHT22;8404;48.752;12.922;2022-07-29T00:48:17;20.20;70.80
4249;DHT22;8404;48.752;12.922;2022-07-29T00:50:45;20.30;71.10
4249;DHT22;8404;48.752;12.922;2022-07-29T00:53:13;20.30;70.80
4249;DHT22;8404;48.752;12.922;2022-07-29T00:55:41;20.20;70.70
4249;DHT22;8404;48.752;12.922;2022-07-29T00:58:11;20.20;70.80
4249;DHT22;8404;48.752;12.922;2022-07-29T01:00:42;20.10;71.30
4249;DHT22;8404;48.752;12.922;2022-07-29T01:03:11;20.10;71.30
4249;DHT22;8404;48.752;12.922;2022-07-29T01:05:41;20.00;71.50
4249;DHT22;8404;48.752;12.922;2022-07-29T01:08:17;20.00;71.90
4249;DHT22;8404;48.752;12.922;2022-07-29T01:10:47;19.90;72.80
4249;DHT22;8404;48.752;12.922;2022-07-29T01:13:16;19.80;72.80
4249;DHT22;8404;48.752;12.922;2022-07-29T01:15:47;19.70;73.20
4249;DHT22;8404;48.752;12.922;2022-07-29T01:18:20;19.70;73.30
4249;DHT22;8404;48.752;12.922;2022-07-29T01:21:06;19.60;73.20
4249;DHT22;8404;48.752;12.922;2022-07-29T01:24:06;19.50;73.50
4249;DHT22;8404;48.752;12.922;2022-07-29T01:26:42;19.50;73.90
4249;DHT22;8404;48.752;12.922;2022-07-29T01:29:21;19.40;73.90
4249;DHT22;8404;48.752;12.922;2022-07-29T01:32:03;19.40;74.10
4249;DHT22;8404;48.752;12.922;2022-07-29T01:34:50;19.30;74.40
4249;DHT22;8404;48.752;12.922;2022-07-29T01:37:23;19.30;75.00
4249;DHT22;8404;48.752;12.922;2022-07-29T01:39:56;19.20;74.90
4249;DHT22;8404;48.752;12.922;2022-07-29T01:42:29;19.20;75.00
4249;DHT22;8404;48.752;12.922;2022-07-29T01:45:03;19.10;75.70
4249;DHT22;8404;48.752;12.922;2022-07-29T01:47:38;19.10;75.70
4249;DHT22;8404;48.752;12.922;2022-07-29T01:50:11;19.10;75.10
4249;DHT22;8404;48.752;12.922;2022-07-29T01:52:43;19.10;76.10
4249;DHT22;8404;48.752;12.922;2022-07-29T01:55:14;19.10;76.50
4249;DHT22;8404;48.752;12.922;2022-07-29T01:57:45;19.10;76.20
4249;DHT22;8404;48.752;12.922;2022-07-29T02:00:16;19.10;76.10
4249;DHT22;8404;48.752;12.922;2022-07-29T02:02:47;19.00;77.80
4249;DHT22;8404;48.752;12.922;2022-07-29T02:05:17;19.00;77.60
4249;DHT22;8404;48.752;12.922;2022-07-29T02:07:48;18.90;77.40
4249;DHT22;8404;48.752;12.922;2022-07-29T02:10:20;18.90;77.00
4249;DHT22;8404;48.752;12.922;2022-07-29T02:12:53;18.90;77.00
4249;DHT22;8404;48.752;12.922;2022-07-29T02:15:24;19.00;76.80
4249;DHT22;8404;48.752;12.922;2022-07-29T02:17:56;19.00;76.70
4249;DHT22;8404;48.752;12.922;2022-07-29T02:20:26;19.00;76.80
4249;DHT22;8404;48.752;12.922;2022-07-29T02:22:55;19.00;76.90
4249;DHT22;8404;48.752;12.922;2022-07-29T02:25:25;19.00;76.80
4249;DHT22;8404;48.752;12.922;2022-07-29T02:28:05;19.00;76.80
4249;DHT22;8404;48.752;12.922;2022-07-29T02:30:38;19.00;77.00
4249;DHT22;8404;48.752;12.922;2022-07-29T02:33:09;19.00;77.20
4249;DHT22;8404;48.752;12.922;2022-07-29T02:35:39;19.00;77.20
4249;DHT22;8404;48.752;12.922;2022-07-29T02:38:08;19.10;77.00
4249;DHT22;8404;48.752;12.922;2022-07-29T02:40:54;19.10;77.20
4249;DHT22;8404;48.752;12.922;2022-07-29T02:43:24;19.10;77.00
4249;DHT22;8404;48.752;12.922;2022-07-29T02:45:55;19.10;78.00
4249;DHT22;8404;48.752;12.922;2022-07-29T02:48:37;19.10;77.50
4249;DHT22;8404;48.752;12.922;2022-07-29T02:51:10;19.10;77.60
4249;DHT22;8404;48.752;12.922;2022-07-29T02:54:01;19.10;77.50
4249;DHT22;8404;48.752;12.922;2022-07-29T02:56:33;19.10;77.70
4249;DHT22;8404;48.752;12.922;2022-07-29T02:59:06;19.10;77.70
4249;DHT22;8404;48.752;12.922;2022-07-29T03:01:40;19.10;77.70
4249;DHT22;8404;48.752;12.922;2022-07-29T03:04:11;19.10;77.70
4249;DHT22;8404;48.752;12.922;2022-07-29T03:06:42;19.10;77.70
4249;DHT22;8404;48.752;12.922;2022-07-29T03:09:11;19.10;77.50
4249;DHT22;8404;48.752;12.922;2022-07-29T03:11:40;19.10;77.70
4249;DHT22;8404;48.752;12.922;2022-07-29T03:14:17;19.10;77.70
4249;DHT22;8404;48.752;12.922;2022-07-29T03:16:49;19.10;77.80
4249;DHT22;8404;48.752;12.922;2022-07-29T03:19:18;19.00;78.10
4249;DHT22;8404;48.752;12.922;2022-07-29T03:21:47;19.00;78.20
4249;DHT22;8404;48.752;12.922;2022-07-29T03:24:25;19.00;78.10
4249;DHT22;8404;48.752;12.922;2022-07-29T03:26:54;19.00;78.10
4249;DHT22;8404;48.752;12.922;2022-07-29T03:29:23;19.00;78.10
4249;DHT22;8404;48.752;12.922;2022-07-29T03:32:02;18.90;78.30
4249;DHT22;8404;48.752;12.922;2022-07-29T03:34:35;18.90;78.40
4249;DHT22;8404;48.752;12.922;2022-07-29T03:37:04;18.90;78.20
4249;DHT22;8404;48.752;12.922;2022-07-29T03:39:36;18.90;78.00
4249;DHT22;8404;48.752;12.922;2022-07-29T03:42:07;18.90;77.70
4249;DHT22;8404;48.752;12.922;2022-07-29T03:44:37;18.90;77.70
4249;DHT22;8404;48.752;12.922;2022-07-29T03:47:08;18.90;77.70
4249;DHT22;8404;48.752;12.922;2022-07-29T03:49:38;18.90;77.70
4249;DHT22;8404;48.752;12.922;2022-07-29T03:52:07;18.90;77.70
4249;DHT22;8404;48.752;12.922;2022-07-29T03:54:35;18.90;78.00
4249;DHT22;8404;48.752;12.922;2022-07-29T03:57:05;19.00;77.90
4249;DHT22;8404;48.752;12.922;2022-07-29T03:59:34;19.10;77.60
4249;DHT22;8404;48.752;12.922;2022-07-29T04:02:04;19.10;77.50
4249;DHT22;8404;48.752;12.922;2022-07-29T04:04:35;19.10;77.50
4249;DHT22;8404;48.752;12.922;2022-07-29T04:07:03;19.20;77.20
4249;DHT22;8404;48.752;12.922;2022-07-29T04:09:32;19.20;77.00
4249;DHT22;8404;48.752;12.922;2022-07-29T04:12:00;19.30;77.20
4249;DHT22;8404;48.752;12.922;2022-07-29T04:14:31;19.30;76.90
4249;DHT22;8404;48.752;12.922;2022-07-29T04:17:00;19.40;77.00
4249;DHT22;8404;48.752;12.922;2022-07-29T04:19:28;19.40;77.20
4249;DHT22;8404;48.752;12.922;2022-07-29T04:21:58;19.40;77.20
4249;DHT22;8404;48.752;12.922;2022-07-29T04:24:27;19.40;77.10
4249;DHT22;8404;48.752;12.922;2022-07-29T04:26:55;19.40;76.90
4249;DHT22;8404;48.752;12.922;2022-07-29T04:29:23;19.50;76.80
4249;DHT22;8404;48.752;12.922;2022-07-29T04:31:51;19.50;76.90
4249;DHT22;8404;48.752;12.922;2022-07-29T04:34:19;19.50;76.90
4249;DHT22;8404;48.752;12.922;2022-07-29T04:36:47;19.50;76.90
4249;DHT22;8404;48.752;12.922;2022-07-29T04:39:17;19.50;76.90
4249;DHT22;8404;48.752;12.922;2022-07-29T04:41:49;19.50;77.30
4249;DHT22;8404;48.752;12.922;2022-07-29T04:44:20;19.60;76.80
4249;DHT22;8404;48.752;12.922;2022-07-29T04:46:56;19.60;76.70
4249;DHT22;8404;48.752;12.922;2022-07-29T04:49:24;19.60;76.60
4249;DHT22;8404;48.752;12.922;2022-07-29T04:51:53;19.60;76.80
4249;DHT22;8404;48.752;12.922;2022-07-29T04:54:22;19.60;76.70
4249;DHT22;8404;48.752;12.922;2022-07-29T04:56:52;19.70;76.70
4249;DHT22;8404;48.752;12.922;2022-07-29T04:59:20;19.70;76.50
4249;DHT22;8404;48.752;12.922;2022-07-29T05:01:48;19.80;76.40
4249;DHT22;8404;48.752;12.922;2022-07-29T05:04:16;19.80;76.20
4249;DHT22;8404;48.752;12.922;2022-07-29T05:06:45;19.80;76.10
4249;DHT22;8404;48.752;12.922;2022-07-29T05:09:13;19.90;76.10
4249;DHT22;8404;48.752;12.922;2022-07-29T05:11:43;19.90;76.50
4249;DHT22;8404;48.752;12.922;2022-07-29T05:14:11;19.90;76.00
4249;DHT22;8404;48.752;12.922;2022-07-29T05:16:39;20.00;76.20
4249;DHT22;8404;48.752;12.922;2022-07-29T05:19:08;20.00;76.40
4249;DHT22;8404;48.752;12.922;2022-07-29T05:21:40;20.10;76.30
4249;DHT22;8404;48.752;12.922;2022-07-29T05:24:08;20.10;76.30
4249;DHT22;8404;48.752;12.922;2022-07-29T05:26:36;20.10;76.10
4249;DHT22;8404;48.752;12.922;2022-07-29T05:29:06;20.20;76.20
4249;DHT22;8404;48.752;12.922;2022-07-29T05:32:23;20.20;76.50
4249;DHT22;8404;48.752;12.922;2022-07-29T05:35:40;20.20;76.50
4249;DHT22;8404;48.752;12.922;2022-07-29T05:38:57;20.40;76.40
4249;DHT22;8404;48.752;12.922;2022-07-29T05:48:21;20.70;76.10
4249;DHT22;8404;48.752;12.922;2022-07-29T05:50:49;20.80;75.60
4249;DHT22;8404;48.752;12.922;2022-07-29T05:53:17;20.90;75.50
4249;DHT22;8404;48.752;12.922;2022-07-29T05:55:46;20.90;75.50
4249;DHT22;8404;48.752;12.922;2022-07-29T05:58:15;21.10;75.60
4249;DHT22;8404;48.752;12.922;2022-07-29T06:00:43;21.10;75.30
4249;DHT22;8404;48.752;12.922;2022-07-29T06:06:01;21.30;74.70
4249;DHT22;8404;48.752;12.922;2022-07-29T06:08:31;21.30;74.80
4249;DHT22;8404;48.752;12.922;2022-07-29T06:11:00;21.30;74.80
4249;DHT22;8404;48.752;12.922;2022-07-29T06:13:29;21.40;74.70
4249;DHT22;8404;48.752;12.922;2022-07-29T06:15:57;21.40;75.20
4249;DHT22;8404;48.752;12.922;2022-07-29T06:18:25;21.50;74.50
4249;DHT22;8404;48.752;12.922;2022-07-29T06:20:53;21.60;74.40
4249;DHT22;8404;48.752;12.922;2022-07-29T06:23:23;21.70;74.50
4249;DHT22;8404;48.752;12.922;2022-07-29T06:25:51;21.90;74.20
4249;DHT22;8404;48.752;12.922;2022-07-29T06:28:19;22.00;73.80
4249;DHT22;8404;48.752;12.922;2022-07-29T06:30:47;22.10;73.50
4249;DHT22;8404;48.752;12.922;2022-07-29T06:33:18;22.20;73.40
4249;DHT22;8404;48.752;12.922;2022-07-29T06:35:46;22.30;73.30
4249;DHT22;8404;48.752;12.922;2022-07-29T06:38:21;22.50;72.80
4249;DHT22;8404;48.752;12.922;2022-07-29T06:40:59;22.60;72.60
4249;DHT22;8404;48.752;12.922;2022-07-29T06:43:30;22.60;72.10
4249;DHT22;8404;48.752;12.922;2022-07-29T06:46:01;22.60;71.20
4249;DHT22;8404;48.752;12.922;2022-07-29T06:48:30;22.70;71.80
4249;DHT22;8404;48.752;12.922;2022-07-29T06:50:58;22.70;71.80
4249;DHT22;8404;48.752;12.922;2022-07-29T06:53:28;22.70;71.20
4249;DHT22;8404;48.752;12.922;2022-07-29T06:56:01;22.70;70.00
4249;DHT22;8404;48.752;12.922;2022-07-29T06:58:30;22.70;70.50
4249;DHT22;8404;48.752;12.922;2022-07-29T07:01:00;22.80;70.50
4249;DHT22;8404;48.752;12.922;2022-07-29T07:03:29;22.80;70.40
4249;DHT22;8404;48.752;12.922;2022-07-29T07:05:57;22.80;70.40
4249;DHT22;8404;48.752;12.922;2022-07-29T07:08:25;22.80;70.00
4249;DHT22;8404;48.752;12.922;2022-07-29T07:10:54;22.90;69.40
4249;DHT22;8404;48.752;12.922;2022-07-29T07:13:25;23.00;68.70
4249;DHT22;8404;48.752;12.922;2022-07-29T07:15:53;23.00;66.80
4249;DHT22;8404;48.752;12.922;2022-07-29T07:18:21;23.00;66.10
4249;DHT22;8404;48.752;12.922;2022-07-29T07:20:49;23.00;66.90
4249;DHT22;8404;48.752;12.922;2022-07-29T07:23:17;23.00;65.50
4249;DHT22;8404;48.752;12.922;2022-07-29T07:25:45;23.00;66.50
4249;DHT22;8404;48.752;12.922;2022-07-29T07:28:13;23.10;66.70
4249;DHT22;8404;48.752;12.922;2022-07-29T07:30:44;23.20;66.90
4249;DHT22;8404;48.752;12.922;2022-07-29T07:33:12;23.20;66.80
4249;DHT22;8404;48.752;12.922;2022-07-29T07:35:40;23.30;66.70
4249;DHT22;8404;48.752;12.922;2022-07-29T07:38:08;23.40;66.30
4249;DHT22;8404;48.752;12.922;2022-07-29T07:40:37;23.50;65.00
4249;DHT22;8404;48.752;12.922;2022-07-29T07:43:05;23.60;64.70
4249;DHT22;8404;48.752;12.922;2022-07-29T07:45:33;23.60;64.00
4249;DHT22;8404;48.752;12.922;2022-07-29T07:48:05;23.60;64.60
4249;DHT22;8404;48.752;12.922;2022-07-29T07:50:36;23.70;63.50
4249;DHT22;8404;48.752;12.922;2022-07-29T07:53:04;23.70;64.70
4249;DHT22;8404;48.752;12.922;2022-07-29T07:55:33;23.80;65.10
4249;DHT22;8404;48.752;12.922;2022-07-29T07:58:21;23.90;64.80
4249;DHT22;8404;48.752;12.922;2022-07-29T08:00:49;24.00;63.80
4249;DHT22;8404;48.752;12.922;2022-07-29T08:03:18;24.20;63.10
4249;DHT22;8404;48.752;12.922;2022-07-29T08:05:46;24.20;64.30
4249;DHT22;8404;48.752;12.922;2022-07-29T08:08:15;24.30;63.80
4249;DHT22;8404;48.752;12.922;2022-07-29T08:10:43;24.40;62.90
4249;DHT22;8404;48.752;12.922;2022-07-29T08:13:21;24.60;63.50
4249;DHT22;8404;48.752;12.922;2022-07-29T08:15:49;24.70;62.60
4249;DHT22;8404;48.752;12.922;2022-07-29T08:18:29;24.80;61.50
4249;DHT22;8404;48.752;12.922;2022-07-29T08:20:58;24.90;60.60
4249;DHT22;8404;48.752;12.922;2022-07-29T08:23:26;25.00;60.70
4249;DHT22;8404;48.752;12.922;2022-07-29T08:26:15;25.00;60.40
4249;DHT22;8404;48.752;12.922;2022-07-29T08:28:45;25.10;58.10
4249;DHT22;8404;48.752;12.922;2022-07-29T08:31:17;25.10;57.80
4249;DHT22;8404;48.752;12.922;2022-07-29T08:33:47;25.20;59.40
4249;DHT22;8404;48.752;12.922;2022-07-29T08:36:15;25.40;59.90
4249;DHT22;8404;48.752;12.922;2022-07-29T08:38:43;25.70;60.00
4249;DHT22;8404;48.752;12.922;2022-07-29T08:41:11;25.90;59.30
4249;DHT22;8404;48.752;12.922;2022-07-29T08:43:39;26.10;56.70
4249;DHT22;8404;48.752;12.922;2022-07-29T08:46:08;26.20;56.90
4249;DHT22;8404;48.752;12.922;2022-07-29T08:48:36;26.10;55.40
4249;DHT22;8404;48.752;12.922;2022-07-29T08:51:07;26.10;56.20
4249;DHT22;8404;48.752;12.922;2022-07-29T08:53:36;26.10;56.30
4249;DHT22;8404;48.752;12.922;2022-07-29T08:56:05;26.20;57.40
4249;DHT22;8404;48.752;12.922;2022-07-29T08:58:34;26.30;56.80
4249;DHT22;8404;48.752;12.922;2022-07-29T09:01:04;26.40;56.70
4249;DHT22;8404;48.752;12.922;2022-07-29T09:03:36;26.40;55.00
4249;DHT22;8404;48.752;12.922;2022-07-29T09:06:07;26.40;55.50
4249;DHT22;8404;48.752;12.922;2022-07-29T09:08:35;26.40;55.10
4249;DHT22;8404;48.752;12.922;2022-07-29T09:11:04;26.40;54.80
4249;DHT22;8404;48.752;12.922;2022-07-29T09:13:33;26.50;55.10
4249;DHT22;8404;48.752;12.922;2022-07-29T09:16:03;26.60;54.00
4249;DHT22;8404;48.752;12.922;2022-07-29T09:18:36;26.70;54.10
4249;DHT22;8404;48.752;12.922;2022-07-29T09:21:07;26.70;54.20
4249;DHT22;8404;48.752;12.922;2022-07-29T09:24:01;26.90;54.50
4249;DHT22;8404;48.752;12.922;2022-07-29T09:26:31;27.20;54.10
4249;DHT22;8404;48.752;12.922;2022-07-29T09:29:01;27.40;53.50
4249;DHT22;8404;48.752;12.922;2022-07-29T09:31:37;27.50;52.80
4249;DHT22;8404;48.752;12.922;2022-07-29T09:34:07;27.50;52.70
4249;DHT22;8404;48.752;12.922;2022-07-29T09:36:44;27.60;52.70
4249;DHT22;8404;48.752;12.922;2022-07-29T09:39:13;27.60;51.90
4249;DHT22;8404;48.752;12.922;2022-07-29T09:41:45;27.60;50.60
4249;DHT22;8404;48.752;12.922;2022-07-29T09:44:14;27.40;50.60
4249;DHT22;8404;48.752;12.922;2022-07-29T09:46:56;27.40;51.40
4249;DHT22;8404;48.752;12.922;2022-07-29T09:49:25;27.40;51.20
4249;DHT22;8404;48.752;12.922;2022-07-29T09:52:04;27.40;50.80
4249;DHT22;8404;48.752;12.922;2022-07-29T09:54:33;27.40;50.00
4249;DHT22;8404;48.752;12.922;2022-07-29T09:57:05;27.40;50.20
4249;DHT22;8404;48.752;12.922;2022-07-29T09:59:33;27.40;48.90
4249;DHT22;8404;48.752;12.922;2022-07-29T10:02:11;27.40;49.20
4249;DHT22;8404;48.752;12.922;2022-07-29T10:04:44;27.40;49.30
4249;DHT22;8404;48.752;12.922;2022-07-29T10:07:14;27.50;47.80
4249;DHT22;8404;48.752;12.922;2022-07-29T10:09:50;27.40;48.30
4249;DHT22;8404;48.752;12.922;2022-07-29T10:12:20;27.40;47.80
4249;DHT22;8404;48.752;12.922;2022-07-29T10:14:49;27.30;47.80
4249;DHT22;8404;48.752;12.922;2022-07-29T10:17:18;27.30;47.80
4249;DHT22;8404;48.752;12.922;2022-07-29T10:19:46;27.20;47.90
4249;DHT22;8404;48.752;12.922;2022-07-29T10:22:17;27.20;48.10
4249;DHT22;8404;48.752;12.922;2022-07-29T10:25:06;27.20;48.50
4249;DHT22;8404;48.752;12.922;2022-07-29T10:27:34;27.40;48.20
4249;DHT22;8404;48.752;12.922;2022-07-29T10:30:04;27.50;48.00
4249;DHT22;8404;48.752;12.922;2022-07-29T10:35:45;27.70;47.20
4249;DHT22;8404;48.752;12.922;2022-07-29T10:38:43;27.60;47.00
4249;DHT22;8404;48.752;12.922;2022-07-29T10:41:27;27.70;46.70
4249;DHT22;8404;48.752;12.922;2022-07-29T10:44:14;27.70;46.30
4249;DHT22;8404;48.752;12.922;2022-07-29T10:46:45;27.60;46.50
4249;DHT22;8404;48.752;12.922;2022-07-29T10:49:15;27.50;47.00
4249;DHT22;8404;48.752;12.922;2022-07-29T10:51:59;27.50;47.10
4249;DHT22;8404;48.752;12.922;2022-07-29T10:54:46;27.60;47.30
4249;DHT22;8404;48.752;12.922;2022-07-29T10:57:17;27.60;47.50
4249;DHT22;8404;48.752;12.922;2022-07-29T10:59:47;27.80;47.40
4249;DHT22;8404;48.752;12.922;2022-07-29T11:02:43;27.80;46.90
4249;DHT22;8404;48.752;12.922;2022-07-29T11:05:13;28.00;47.20
4249;DHT22;8404;48.752;12.922;2022-07-29T11:10:48;28.20;46.80
4249;DHT22;8404;48.752;12.922;2022-07-29T11:13:45;28.50;47.40
4249;DHT22;8404;48.752;12.922;2022-07-29T11:16:15;28.70;46.60
4249;DHT22;8404;48.752;12.922;2022-07-29T11:19:21;28.90;45.80
4249;DHT22;8404;48.752;12.922;2022-07-29T11:21:56;29.10;45.20
4249;DHT22;8404;48.752;12.922;2022-07-29T11:24:28;29.10;45.00
4249;DHT22;8404;48.752;12.922;2022-07-29T11:27:16;29.20;44.50
4249;DHT22;8404;48.752;12.922;2022-07-29T11:29:51;29.10;44.80
4249;DHT22;8404;48.752;12.922;2022-07-29T11:32:24;29.00;44.30
4249;DHT22;8404;48.752;12.922;2022-07-29T11:35:14;29.00;45.10
4249;DHT22;8404;48.752;12.922;2022-07-29T11:37:45;29.30;45.10
4249;DHT22;8404;48.752;12.922;2022-07-29T11:40:21;29.40;45.30
4249;DHT22;8404;48.752;12.922;2022-07-29T11:42:51;29.50;44.10
4249;DHT22;8404;48.752;12.922;2022-07-29T11:45:23;29.50;45.40
4249;DHT22;8404;48.752;12.922;2022-07-29T11:48:15;29.70;44.60
4249;DHT22;8404;48.752;12.922;2022-07-29T11:50:56;30.00;44.50
4249;DHT22;8404;48.752;12.922;2022-07-29T11:53:25;30.30;43.90
4249;DHT22;8404;48.752;12.922;2022-07-29T11:55:59;30.60;43.80
4249;DHT22;8404;48.752;12.922;2022-07-29T11:58:50;30.90;43.60
4249;DHT22;8404;48.752;12.922;2022-07-29T12:01:18;31.10;43.20
4249;DHT22;8404;48.752;12.922;2022-07-29T12:04:02;31.30;43.30
4249;DHT22;8404;48.752;12.922;2022-07-29T12:06:33;31.40;43.40
4249;DHT22;8404;48.752;12.922;2022-07-29T12:09:06;31.50;43.00
4249;DHT22;8404;48.752;12.922;2022-07-29T12:11:40;31.60;43.00
4249;DHT22;8404;48.752;12.922;2022-07-29T12:14:27;31.80;43.10
4249;DHT22;8404;48.752;12.922;2022-07-29T12:16:55;31.80;41.70
4249;DHT22;8404;48.752;12.922;2022-07-29T12:19:24;31.80;41.40
4249;DHT22;8404;48.752;12.922;2022-07-29T12:21:55;31.70;41.70
4249;DHT22;8404;48.752;12.922;2022-07-29T12:24:42;31.60;42.70
4249;DHT22;8404;48.752;12.922;2022-07-29T12:27:11;31.60;42.40
4249;DHT22;8404;48.752;12.922;2022-07-29T12:29:57;31.60;42.50
4249;DHT22;8404;48.752;12.922;2022-07-29T12:32:31;31.60;41.90
4249;DHT22;8404;48.752;12.922;2022-07-29T12:35:03;31.40;42.00
4249;DHT22;8404;48.752;12.922;2022-07-29T12:37:33;31.40;42.50
4249;DHT22;8404;48.752;12.922;2022-07-29T12:40:09;31.50;42.10
4249;DHT22;8404;48.752;12.922;2022-07-29T12:42:38;31.60;42.00
4249;DHT22;8404;48.752;12.922;2022-07-29T12:45:08;31.80;42.30
4249;DHT22;8404;48.752;12.922;2022-07-29T12:47:51;32.20;42.50
4249;DHT22;8404;48.752;12.922;2022-07-29T12:50:19;32.40;41.10
4249;DHT22;8404;48.752;12.922;2022-07-29T12:52:52;32.20;40.30
4249;DHT22;8404;48.752;12.922;2022-07-29T12:55:38;31.90;40.20
4249;DHT22;8404;48.752;12.922;2022-07-29T12:58:07;31.80;40.90
4249;DHT22;8404;48.752;12.922;2022-07-29T13:00:37;31.70;40.80
4249;DHT22;8404;48.752;12.922;2022-07-29T13:03:05;31.60;40.90
4249;DHT22;8404;48.752;12.922;2022-07-29T13:05:41;31.50;41.10
4249;DHT22;8404;48.752;12.922;2022-07-29T13:08:16;31.60;41.90
4249;DHT22;8404;48.752;12.922;2022-07-29T13:10:48;31.80;41.40
4249;DHT22;8404;48.752;12.922;2022-07-29T13:13:16;32.00;41.50
4249;DHT22;8404;48.752;12.922;2022-07-29T13:15:46;32.00;40.70
4249;DHT22;8404;48.752;12.922;2022-07-29T13:18:27;31.80;40.80
4249;DHT22;8404;48.752;12.922;2022-07-29T13:20:55;31.80;41.10
4249;DHT22;8404;48.752;12.922;2022-07-29T13:23:24;31.90;40.50
4249;DHT22;8404;48.752;12.922;2022-07-29T13:25:54;32.00;40.30
4249;DHT22;8404;48.752;12.922;2022-07-29T13:28:22;32.20;40.30
4249;DHT22;8404;48.752;12.922;2022-07-29T13:30:51;32.20;39.90
4249;DHT22;8404;48.752;12.922;2022-07-29T13:33:19;32.40;40.70
4249;DHT22;8404;48.752;12.922;2022-07-29T13:35:47;32.60;39.70
4249;DHT22;8404;48.752;12.922;2022-07-29T13:38:15;32.70;39.70
4249;DHT22;8404;48.752;12.922;2022-07-29T13:40:43;32.90;39.90
4249;DHT22;8404;48.752;12.922;2022-07-29T13:43:12;33.00;38.90
4249;DHT22;8404;48.752;12.922;2022-07-29T13:45:40;33.00;39.30
4249;DHT22;8404;48.752;12.922;2022-07-29T13:48:09;33.30;40.20
4249;DHT22;8404;48.752;12.922;2022-07-29T13:50:37;33.60;40.30
4249;DHT22;8404;48.752;12.922;2022-07-29T13:53:05;34.10;40.50
4249;DHT22;8404;48.752;12.922;2022-07-29T13:55:33;35.10;40.30
4249;DHT22;8404;48.752;12.922;2022-07-29T13:58:02;36.50;38.60
4249;DHT22;8404;48.752;12.922;2022-07-29T14:00:30;37.70;37.70
4249;DHT22;8404;48.752;12.922;2022-07-29T14:02:58;38.00;35.00
4249;DHT22;8404;48.752;12.922;2022-07-29T14:05:27;37.40;35.50
4249;DHT22;8404;48.752;12.922;2022-07-29T14:07:55;36.80;35.60
4249;DHT22;8404;48.752;12.922;2022-07-29T14:10:23;36.50;36.70
4249;DHT22;8404;48.752;12.922;2022-07-29T14:12:52;37.50;35.80
4249;DHT22;8404;48.752;12.922;2022-07-29T14:15:20;39.00;34.80
4249;DHT22;8404;48.752;12.922;2022-07-29T14:17:48;39.50;34.20
4249;DHT22;8404;48.752;12.922;2022-07-29T14:20:16;40.40;33.00
4249;DHT22;8404;48.752;12.922;2022-07-29T14:22:46;41.80;32.60
4249;DHT22;8404;48.752;12.922;2022-07-29T14:25:14;43.30;30.60
4249;DHT22;8404;48.752;12.922;2022-07-29T14:27:42;44.10;29.90
4249;DHT22;8404;48.752;12.922;2022-07-29T14:30:11;45.00;29.90
4249;DHT22;8404;48.752;12.922;2022-07-29T14:32:39;45.50;29.60
4249;DHT22;8404;48.752;12.922;2022-07-29T14:35:08;45.90;29.50
4249;DHT22;8404;48.752;12.922;2022-07-29T14:37:36;46.10;27.90
4249;DHT22;8404;48.752;12.922;2022-07-29T14:40:09;46.20;28.30
4249;DHT22;8404;48.752;12.922;2022-07-29T14:42:37;45.80;28.50
4249;DHT22;8404;48.752;12.922;2022-07-29T14:45:07;45.80;28.60
4249;DHT22;8404;48.752;12.922;2022-07-29T14:47:36;46.40;28.90
4249;DHT22;8404;48.752;12.922;2022-07-29T14:50:06;46.50;28.30
4249;DHT22;8404;48.752;12.922;2022-07-29T14:52:34;47.30;28.90
4249;DHT22;8404;48.752;12.922;2022-07-29T14:55:03;48.10;29.10
4249;DHT22;8404;48.752;12.922;2022-07-29T14:57:46;48.60;28.10
4249;DHT22;8404;48.752;12.922;2022-07-29T15:00:15;48.60;28.10
4249;DHT22;8404;48.752;12.922;2022-07-29T15:02:44;48.60;27.70
4249;DHT22;8404;48.752;12.922;2022-07-29T15:05:28;47.30;28.40
4249;DHT22;8404;48.752;12.922;2022-07-29T15:07:56;45.70;28.80
4249;DHT22;8404;48.752;12.922;2022-07-29T15:10:25;44.90;29.30
4249;DHT22;8404;48.752;12.922;2022-07-29T15:12:55;44.70;29.50
4249;DHT22;8404;48.752;12.922;2022-07-29T15:15:23;44.70;28.40
4249;DHT22;8404;48.752;12.922;2022-07-29T15:17:51;43.60;28.70
4249;DHT22;8404;48.752;12.922;2022-07-29T15:20:19;42.30;28.60
4249;DHT22;8404;48.752;12.922;2022-07-29T15:22:48;40.60;29.30
4249;DHT22;8404;48.752;12.922;2022-07-29T15:25:16;39.40;30.00
4249;DHT22;8404;48.752;12.922;2022-07-29T15:27:44;38.40;30.60
4249;DHT22;8404;48.752;12.922;2022-07-29T15:30:20;37.70;31.90
4249;DHT22;8404;48.752;12.922;2022-07-29T15:32:59;37.30;31.90
4249;DHT22;8404;48.752;12.922;2022-07-29T15:35:28;36.90;33.10
4249;DHT22;8404;48.752;12.922;2022-07-29T15:37:56;36.60;34.40
4249;DHT22;8404;48.752;12.922;2022-07-29T15:40:24;36.30;34.70
4249;DHT22;8404;48.752;12.922;2022-07-29T15:42:52;36.00;35.20
4249;DHT22;8404;48.752;12.922;2022-07-29T15:45:22;35.80;34.90
4249;DHT22;8404;48.752;12.922;2022-07-29T15:47:50;35.50;34.80
4249;DHT22;8404;48.752;12.922;2022-07-29T15:50:18;35.00;34.50
4249;DHT22;8404;48.752;12.922;2022-07-29T15:52:47;34.60;34.70
4249;DHT22;8404;48.752;12.922;2022-07-29T15:55:15;34.10;35.30
4249;DHT22;8404;48.752;12.922;2022-07-29T15:57:43;33.70;35.30
4249;DHT22;8404;48.752;12.922;2022-07-29T16:00:11;33.30;35.40
4249;DHT22;8404;48.752;12.922;2022-07-29T16:02:41;33.00;35.60
4249;DHT22;8404;48.752;12.922;2022-07-29T16:05:09;32.80;36.00
4249;DHT22;8404;48.752;12.922;2022-07-29T16:07:38;32.60;36.30
4249;DHT22;8404;48.752;12.922;2022-07-29T16:10:06;32.50;36.70
4249;DHT22;8404;48.752;12.922;2022-07-29T16:12:35;32.40;37.40
4249;DHT22;8404;48.752;12.922;2022-07-29T16:15:03;32.20;37.40
4249;DHT22;8404;48.752;12.922;2022-07-29T16:17:36;32.00;37.50
4249;DHT22;8404;48.752;12.922;2022-07-29T16:20:07;31.90;37.60
4249;DHT22;8404;48.752;12.922;2022-07-29T16:22:36;31.80;37.70
4249;DHT22;8404;48.752;12.922;2022-07-29T16:25:05;31.70;38.40
4249;DHT22;8404;48.752;12.922;2022-07-29T16:27:34;31.50;39.30
4249;DHT22;8404;48.752;12.922;2022-07-29T16:30:05;31.40;38.90